Taos Ski Valley, NM

2:01 PM MST on December 26, 2014 (GMT -0700)
Taos Municipal | Change Station
CLOSE
Current Station
Airport
Location: Taos,
Elevation: 7090 ft
Nearby Weather Stations
Active Advisory: Winter Storm Warning Active Notice: Public Information Statement

Elev 7090 ft 36.46 °N, 105.67 °W | Updated 6 minutes ago

Mostly Cloudy
Mostly Cloudy
25 °F
Feels Like 13 °F
N
13
Wind Variable Wind from SW

Today
High -- | Low -- °F
--% Chance of Precip.
Yesterday
High -- | Low -- °F
Precip. -- in
7:12 AM 4:53 PM
Waxing Crescent, 29% visible
Pressure 29.75 in
Visibility 10.0 miles
Clouds Few 6000 ft
Mostly Cloudy 8000 ft
Windchill 13 °F
Dew Point 14 °F
Humidity 64%
Rainfall 0.08 in
Snow Depth Not available.
UV 1 out of 12
Pollen .10 out of 12
Air Quality Not available.
Flu Activity Not available.
METAR KSKX 262055Z AUTO 23011KT 10SM FEW060 BKN080 M04/M10 A2975 RMK AO1 57003

More Conditions Fewer Conditions

Pressure 29.75 in
Visibility 10.0 miles
Clouds Few 6000 ft
Mostly Cloudy 8000 ft
Windchill 13 °F
Dew Point 14 °F
Humidity 64%
Rainfall 0.08 in
Snow Depth Not available.
UV 1 out of 12
Pollen .10 out of 12
Air Quality Not available.
Flu Activity Not available.
METAR KSKX 262055Z AUTO 23011KT 10SM FEW060 BKN080 M04/M10 A2975 RMK AO1 57003

More Conditions Fewer Conditions

Nowcast | as of 2:00 PM MST on December 26, 2014

Scattered snow showers will be found over much of western and central New Mexico for the rest of this afternoon. Most of the showers will be focused over the higher terrain. Visibilities in snow will vary from around 1 to 3 miles. Additional snow accumulations will range from a dusting to a localized 1 to 2 inches in the heavier showers. Before 4 PM some locations affected include Los Alamos...Embudo... Santa Fe...Jemez Springs...and Tres Ritos. Roads over the region may be snowpacked and icy...especially across the higher terrain. For the latest New Mexico Road conditions visit nmroads.Com or call 5 1 1.

×

10-Day Weather Forecast

Almanac

Astronomy

Dec. 26, 2014 Rise Set
Actual Time
Civil Twilight
Nautical Twilight
Astronomical Twilight
Moon
Length of Visible Light
Length of Day
Tomorrow will be .
, % of the Moon is Illuminated

Today's Extremes

State Highs State Lows

Community

WunderPhotos

Upload Photos

1,780,708 photos uploaded!

WunderBlogs® & News

Nearby

Air Quality

  Air Quality AQ Index Pollutant
Not available.

Snow Depth

Station Depth Elevation

Earthquake Activity

City Distance Mag. Time & Date
Minimum magnitude displayed is 2.5.

Coastal Water Temperatures

Place Temperature

Nearby Weather Stations